createdAt,value
2017-10-27T00:00:01.607Z,14.37
2017-10-27T00:02:36.175Z,14.39
2017-10-27T00:05:14.783Z,14.39
2017-10-27T00:07:49.251Z,14.27
2017-10-27T00:10:23.832Z,14.42
2017-10-27T00:12:58.479Z,14.32
2017-10-27T00:15:33.003Z,14.38
2017-10-27T00:18:11.570Z,14.34
2017-10-27T00:20:46.146Z,14.04
2017-10-27T00:23:20.565Z,14.37
2017-10-27T00:25:55.165Z,14.31
2017-10-27T00:28:30.310Z,14.32
2017-10-27T00:31:04.730Z,14.30
2017-10-27T00:33:39.260Z,14.33
2017-10-27T00:36:13.835Z,14.48
2017-10-27T00:38:48.358Z,14.20
2017-10-27T00:41:22.751Z,14.27
2017-10-27T00:43:57.353Z,14.37
2017-10-27T00:46:31.781Z,14.35
2017-10-27T00:49:06.255Z,14.17
2017-10-27T00:51:40.696Z,14.18
2017-10-27T00:54:15.238Z,14.06
2017-10-27T00:56:49.418Z,14.34
2017-10-27T00:59:23.639Z,14.33
2017-10-27T01:01:58.791Z,14.06
2017-10-27T01:04:33.334Z,14.03
2017-10-27T01:07:07.814Z,14.07
2017-10-27T01:09:42.254Z,14.19
2017-10-27T01:12:16.663Z,14.18
2017-10-27T01:14:51.283Z,14.31
2017-10-27T01:17:25.798Z,14.17
2017-10-27T01:20:00.409Z,14.06
2017-10-27T01:22:34.824Z,14.04
2017-10-27T01:25:11.852Z,14.21
2017-10-27T01:27:46.079Z,14.02
2017-10-27T01:30:20.189Z,14.12
2017-10-27T01:32:54.375Z,14.21
2017-10-27T01:35:28.501Z,14.19
2017-10-27T01:38:02.560Z,14.15
2017-10-27T01:40:36.667Z,14.29
2017-10-27T01:43:10.927Z,14.23
2017-10-27T01:45:45.991Z,14.20
2017-10-27T01:48:20.131Z,14.15
2017-10-27T01:50:54.524Z,14.29
2017-10-27T01:53:28.628Z,14.13
2017-10-27T01:56:03.134Z,14.13
2017-10-27T01:58:38.394Z,14.12
2017-10-27T02:01:13.058Z,14.17
2017-10-27T02:03:48.141Z,14.22
2017-10-27T02:06:22.200Z,14.25
2017-10-27T02:08:56.610Z,14.30
2017-10-27T02:11:31.142Z,14.42
2017-10-27T02:14:05.255Z,14.49
2017-10-27T02:16:39.747Z,14.54
2017-10-27T02:19:14.022Z,14.50
2017-10-27T02:21:48.459Z,14.50
2017-10-27T02:24:22.594Z,14.56
2017-10-27T02:26:57.119Z,14.71
2017-10-27T02:29:31.174Z,14.56
2017-10-27T02:32:05.357Z,14.61
2017-10-27T02:34:39.498Z,14.34
2017-10-27T02:37:13.634Z,14.43
2017-10-27T02:39:47.707Z,14.41
2017-10-27T02:42:22.095Z,14.35
2017-10-27T02:44:56.683Z,14.52
2017-10-27T02:47:31.090Z,14.40
2017-10-27T02:50:11.563Z,14.42
2017-10-27T02:52:45.998Z,14.53
2017-10-27T02:55:20.580Z,14.53
2017-10-27T02:57:55.150Z,14.52
2017-10-27T03:00:29.288Z,14.51
2017-10-27T03:03:03.723Z,14.50
2017-10-27T03:05:38.184Z,14.53
2017-10-27T03:08:12.606Z,14.56
2017-10-27T03:10:47.031Z,14.51
2017-10-27T03:13:21.553Z,14.68
2017-10-27T03:15:56.062Z,14.69
2017-10-27T03:18:30.580Z,14.58
2017-10-27T03:21:05.679Z,14.67
2017-10-27T03:23:40.099Z,14.60
2017-10-27T03:26:14.597Z,14.54
2017-10-27T03:28:48.782Z,14.53
2017-10-27T03:31:23.269Z,14.51
2017-10-27T03:33:57.843Z,14.59
2017-10-27T03:36:32.258Z,14.54
2017-10-27T03:39:06.943Z,14.69
2017-10-27T03:41:41.353Z,14.72
2017-10-27T03:44:16.034Z,14.80
2017-10-27T03:46:50.463Z,14.75
2017-10-27T03:49:25.067Z,14.52
2017-10-27T03:51:59.528Z,14.68
2017-10-27T03:54:34.083Z,14.55
2017-10-27T03:57:08.577Z,14.67
2017-10-27T03:59:43.083Z,14.63
2017-10-27T04:02:17.490Z,14.51
2017-10-27T04:04:52.203Z,14.61
2017-10-27T04:07:26.922Z,14.60
2017-10-27T04:10:01.593Z,14.48
2017-10-27T04:12:36.294Z,14.39
2017-10-27T04:15:15.185Z,14.58
2017-10-27T04:17:49.814Z,14.70
2017-10-27T04:20:24.667Z,14.44
2017-10-27T04:22:59.182Z,14.42
2017-10-27T04:25:33.590Z,14.51
2017-10-27T04:28:08.210Z,14.56
2017-10-27T04:30:42.640Z,14.67
2017-10-27T04:33:17.051Z,14.78
2017-10-27T04:35:51.507Z,14.82
2017-10-27T04:38:26.028Z,15.04
2017-10-27T04:41:00.482Z,14.65
2017-10-27T04:43:34.989Z,14.64
2017-10-27T04:46:09.891Z,14.87
2017-10-27T04:48:44.419Z,15.03
2017-10-27T04:51:18.844Z,14.89
2017-10-27T04:53:53.699Z,15.02
2017-10-27T04:56:28.102Z,14.94
2017-10-27T04:59:02.731Z,14.86
2017-10-27T05:01:37.147Z,14.90
2017-10-27T05:04:11.642Z,14.89
2017-10-27T05:06:45.908Z,15.02
2017-10-27T05:09:20.443Z,14.88
2017-10-27T05:11:54.929Z,14.76
2017-10-27T05:14:29.340Z,14.68
2017-10-27T05:17:09.155Z,14.73
2017-10-27T05:19:49.203Z,14.83
2017-10-27T05:22:29.170Z,14.76
2017-10-27T05:25:03.856Z,14.84
2017-10-27T05:27:38.428Z,14.97
2017-10-27T05:30:13.766Z,15.00
2017-10-27T05:32:48.404Z,14.86
2017-10-27T05:35:23.255Z,14.88
2017-10-27T05:37:57.647Z,15.02
2017-10-27T05:40:32.166Z,15.17
2017-10-27T05:43:06.647Z,15.12
2017-10-27T05:45:40.723Z,15.23
2017-10-27T05:48:15.276Z,15.16
2017-10-27T05:50:49.738Z,15.16
2017-10-27T05:53:24.199Z,15.16
2017-10-27T05:55:58.641Z,15.04
2017-10-27T05:58:33.079Z,14.80
2017-10-27T06:01:07.662Z,14.78
2017-10-27T06:03:42.223Z,14.73
2017-10-27T06:06:16.671Z,14.72
2017-10-27T06:08:51.250Z,14.59
2017-10-27T06:11:25.770Z,14.67
2017-10-27T06:14:00.286Z,14.44
2017-10-27T06:16:34.773Z,14.49
2017-10-27T06:19:09.306Z,14.53
2017-10-27T06:21:43.735Z,14.45
2017-10-27T06:24:18.286Z,14.39
2017-10-27T06:26:52.801Z,14.33
2017-10-27T06:29:27.323Z,14.64
2017-10-27T06:32:01.792Z,14.41
2017-10-27T06:34:36.330Z,14.49
2017-10-27T06:37:13.770Z,14.62
2017-10-27T06:39:48.227Z,14.83
2017-10-27T06:42:22.668Z,15.02
2017-10-27T06:44:57.345Z,14.99
2017-10-27T06:47:31.791Z,14.92
2017-10-27T06:50:14.124Z,14.69
2017-10-27T06:52:48.548Z,14.69
2017-10-27T06:55:23.094Z,14.76
2017-10-27T06:57:57.633Z,14.70
2017-10-27T07:00:31.676Z,14.44
2017-10-27T07:03:06.238Z,14.70
2017-10-27T07:05:40.983Z,14.79
2017-10-27T07:08:15.384Z,14.76
2017-10-27T07:10:49.855Z,14.75
2017-10-27T07:13:24.364Z,14.77
2017-10-27T07:15:58.849Z,14.60
2017-10-27T07:18:33.425Z,14.57
2017-10-27T07:21:07.863Z,14.37
2017-10-27T07:23:42.457Z,14.62
2017-10-27T07:26:16.894Z,14.64
2017-10-27T07:28:51.315Z,14.63
2017-10-27T07:31:25.512Z,14.76
2017-10-27T07:34:00.075Z,14.80
2017-10-27T07:36:34.498Z,14.80
2017-10-27T07:39:08.679Z,14.88
2017-10-27T07:41:42.771Z,15.03
2017-10-27T07:44:17.034Z,15.14
2017-10-27T07:46:51.147Z,15.15
2017-10-27T07:49:25.923Z,15.39
2017-10-27T07:52:00.626Z,15.46
2017-10-27T07:54:35.091Z,15.38
2017-10-27T07:57:09.302Z,15.37
2017-10-27T07:59:43.874Z,15.35
2017-10-27T08:02:18.072Z,15.40
2017-10-27T08:04:52.152Z,15.22
2017-10-27T08:07:26.282Z,15.27
2017-10-27T08:10:00.542Z,15.36
2017-10-27T08:12:34.644Z,15.25
2017-10-27T08:15:12.734Z,15.17
2017-10-27T08:17:47.208Z,15.18
2017-10-27T08:20:21.296Z,15.34
2017-10-27T08:22:55.694Z,15.31
2017-10-27T08:25:29.827Z,15.41
2017-10-27T08:28:04.054Z,15.34
2017-10-27T08:30:38.470Z,15.35
2017-10-27T08:33:13.320Z,15.43
2017-10-27T08:35:47.805Z,15.48
2017-10-27T08:38:21.999Z,15.53
2017-10-27T08:40:56.099Z,15.59
2017-10-27T08:43:30.326Z,15.56
2017-10-27T08:46:04.407Z,15.70
2017-10-27T08:48:38.635Z,15.56
2017-10-27T08:51:13.166Z,15.68
2017-10-27T08:53:47.268Z,15.57
2017-10-27T08:56:22.070Z,15.61
2017-10-27T08:58:56.354Z,15.63
2017-10-27T09:01:30.500Z,15.67
2017-10-27T09:04:04.651Z,15.66
2017-10-27T09:06:39.080Z,15.67
2017-10-27T09:09:13.391Z,15.71
2017-10-27T09:11:47.682Z,15.79
2017-10-27T09:14:21.786Z,15.64
2017-10-27T09:16:55.886Z,15.70
2017-10-27T09:19:30.150Z,15.78
2017-10-27T09:22:04.223Z,15.68
2017-10-27T09:24:38.494Z,15.69
2017-10-27T09:27:13.080Z,15.77
2017-10-27T09:29:47.588Z,15.68
2017-10-27T09:32:21.692Z,15.69
2017-10-27T09:34:56.567Z,15.70
2017-10-27T09:37:31.450Z,15.67
2017-10-27T09:40:13.606Z,15.63
2017-10-27T09:42:48.135Z,15.71
2017-10-27T09:45:22.245Z,15.80
2017-10-27T09:47:56.310Z,15.95
2017-10-27T09:50:30.503Z,15.96
2017-10-27T09:53:04.714Z,15.45
2017-10-27T09:55:38.778Z,12.18
2017-10-27T09:58:13.015Z,11.09
2017-10-27T10:00:47.106Z,10.34
2017-10-27T10:03:21.206Z,9.92
2017-10-27T10:05:58.239Z,9.69
2017-10-27T10:08:32.403Z,9.59
2017-10-27T10:11:06.955Z,9.60
2017-10-27T10:13:41.203Z,9.55
2017-10-27T10:16:15.322Z,9.52
2017-10-27T10:18:49.423Z,9.49
2017-10-27T10:21:23.879Z,9.48
2017-10-27T10:23:59.702Z,9.46
2017-10-27T10:26:34.541Z,9.41
2017-10-27T10:29:15.551Z,9.44
2017-10-27T10:31:49.987Z,9.40
2017-10-27T10:34:24.480Z,9.40
2017-10-27T10:36:58.696Z,9.37
2017-10-27T10:39:32.974Z,9.44
2017-10-27T10:42:07.382Z,9.42
2017-10-27T10:44:41.563Z,9.16
2017-10-27T10:47:16.518Z,9.43
2017-10-27T10:49:52.842Z,9.41
2017-10-27T10:52:27.873Z,9.31
2017-10-27T10:55:02.895Z,9.35
2017-10-27T10:57:42.828Z,9.30
2017-10-27T11:00:17.017Z,9.26
2017-10-27T11:02:55.866Z,9.22
2017-10-27T11:05:30.103Z,9.08
2017-10-27T11:08:04.658Z,9.14
2017-10-27T11:10:38.759Z,9.13
2017-10-27T11:13:14.618Z,9.12
2017-10-27T11:15:49.920Z,9.10
2017-10-27T11:18:25.747Z,9.06
2017-10-27T11:20:59.997Z,9.05
2017-10-27T11:23:34.005Z,9.02
2017-10-27T11:26:08.401Z,9.05
2017-10-27T11:28:42.627Z,9.04
2017-10-27T11:31:19.751Z,9.06
2017-10-27T11:33:53.898Z,9.08
2017-10-27T11:36:28.078Z,9.03
2017-10-27T11:39:02.169Z,9.06
2017-10-27T11:41:40.219Z,9.05
2017-10-27T11:44:14.875Z,9.07
2017-10-27T11:46:49.280Z,9.06
2017-10-27T11:49:24.356Z,9.05
2017-10-27T11:51:59.006Z,8.99
2017-10-27T11:54:33.554Z,9.05
2017-10-27T11:57:07.972Z,8.98
2017-10-27T11:59:42.521Z,8.98
2017-10-27T12:02:16.925Z,8.89
2017-10-27T12:04:51.697Z,9.00
2017-10-27T12:07:26.696Z,8.98
2017-10-27T12:10:00.986Z,8.94
2017-10-27T12:12:35.123Z,8.93
2017-10-27T12:15:11.395Z,8.98
2017-10-27T12:17:53.692Z,8.99
2017-10-27T12:20:28.034Z,8.93
2017-10-27T12:23:02.567Z,8.78
2017-10-27T12:25:36.614Z,8.88
2017-10-27T12:28:13.038Z,8.90
2017-10-27T12:30:47.511Z,8.94
2017-10-27T12:33:21.574Z,9.07
2017-10-27T12:35:55.963Z,9.05
2017-10-27T12:38:30.269Z,9.13
2017-10-27T12:41:04.675Z,9.29
2017-10-27T12:43:38.874Z,9.26
2017-10-27T12:46:14.152Z,9.34
2017-10-27T12:48:48.697Z,9.42
2017-10-27T12:51:23.851Z,9.49
2017-10-27T12:53:58.492Z,9.59
2017-10-27T12:56:33.231Z,9.62
2017-10-27T12:59:07.683Z,9.66
2017-10-27T13:01:41.846Z,9.92
2017-10-27T13:04:16.350Z,10.30
2017-10-27T13:06:50.989Z,10.19
2017-10-27T13:09:25.904Z,10.18
2017-10-27T13:12:05.914Z,10.14
2017-10-27T13:14:41.313Z,9.89
2017-10-27T13:17:15.554Z,9.83
2017-10-27T13:19:53.902Z,9.78
2017-10-27T13:22:28.086Z,9.74
2017-10-27T13:25:02.283Z,9.66
2017-10-27T13:27:36.787Z,9.72
2017-10-27T13:30:16.031Z,9.73
2017-10-27T13:32:51.550Z,9.79
2017-10-27T13:35:26.180Z,9.77
2017-10-27T13:38:01.146Z,9.86
2017-10-27T13:40:35.440Z,9.75
2017-10-27T13:43:09.663Z,9.83
2017-10-27T13:45:43.762Z,9.81
2017-10-27T13:48:18.822Z,9.72
2017-10-27T13:50:53.046Z,9.72
2017-10-27T13:53:27.480Z,9.79
2017-10-27T13:56:02.775Z,9.78
2017-10-27T13:58:37.106Z,9.70
2017-10-27T14:01:12.063Z,9.64
2017-10-27T14:03:46.168Z,9.66
2017-10-27T14:06:20.264Z,9.65
2017-10-27T14:08:54.377Z,9.73
2017-10-27T14:11:28.513Z,9.86
2017-10-27T14:14:03.439Z,9.93
2017-10-27T14:16:37.890Z,9.94
2017-10-27T14:19:12.342Z,9.81
2017-10-27T14:21:46.791Z,9.81
2017-10-27T14:24:21.367Z,9.86
2017-10-27T14:26:55.471Z,9.76
2017-10-27T14:29:30.025Z,9.72
2017-10-27T14:32:04.474Z,9.74
2017-10-27T14:34:38.738Z,9.78
2017-10-27T14:37:13.646Z,9.82
2017-10-27T14:39:48.106Z,9.76
2017-10-27T14:42:27.003Z,9.82
2017-10-27T14:45:02.823Z,9.78
2017-10-27T14:47:42.607Z,9.85
2017-10-27T14:50:17.004Z,9.70
2017-10-27T14:52:51.638Z,9.63
2017-10-27T14:55:26.073Z,9.67
2017-10-27T14:58:00.624Z,9.67
2017-10-27T15:00:35.762Z,9.71
2017-10-27T15:03:10.319Z,9.65
2017-10-27T15:05:51.155Z,9.60
2017-10-27T15:08:31.613Z,9.61
2017-10-27T15:11:05.859Z,9.59
2017-10-27T15:13:40.989Z,9.49
2017-10-27T15:16:17.050Z,9.52
2017-10-27T15:18:52.480Z,9.60
2017-10-27T15:21:30.375Z,9.59
2017-10-27T15:24:04.816Z,9.59
2017-10-27T15:26:38.870Z,9.65
2017-10-27T15:29:13.032Z,9.64
2017-10-27T15:31:47.683Z,9.71
2017-10-27T15:34:22.314Z,9.71
2017-10-27T15:36:56.170Z,9.72
2017-10-27T15:39:30.719Z,9.76
2017-10-27T15:42:05.172Z,9.72
2017-10-27T15:44:39.722Z,9.72
2017-10-27T15:47:14.180Z,9.71
2017-10-27T15:49:48.810Z,9.67
2017-10-27T15:52:23.499Z,9.68
2017-10-27T15:54:57.885Z,9.82
2017-10-27T15:57:33.367Z,9.88
2017-10-27T16:00:25.389Z,9.88
2017-10-27T16:03:05.804Z,9.99
2017-10-27T16:05:40.435Z,10.00
2017-10-27T16:08:14.870Z,9.99
2017-10-27T16:10:49.314Z,9.88
2017-10-27T16:13:23.916Z,9.83
2017-10-27T16:15:58.335Z,9.83
2017-10-27T16:18:32.875Z,9.80
2017-10-27T16:21:07.947Z,9.82
2017-10-27T16:23:42.377Z,9.76
2017-10-27T16:26:16.836Z,9.76
2017-10-27T16:28:51.418Z,9.71
2017-10-27T16:31:25.906Z,9.88
2017-10-27T16:34:00.467Z,9.94
2017-10-27T16:36:36.115Z,9.94
2017-10-27T16:39:10.644Z,9.98
2017-10-27T16:41:45.387Z,10.05
2017-10-27T16:44:19.915Z,10.07
2017-10-27T16:46:54.379Z,10.08
2017-10-27T16:49:29.503Z,10.13
2017-10-27T16:52:04.544Z,10.03
2017-10-27T16:54:38.957Z,9.96
2017-10-27T16:57:13.275Z,10.03
2017-10-27T16:59:47.735Z,10.03
2017-10-27T17:02:22.175Z,9.97
2017-10-27T17:04:56.699Z,10.13
2017-10-27T17:07:31.312Z,10.12
2017-10-27T17:10:14.086Z,10.17
2017-10-27T17:12:48.498Z,10.21
2017-10-27T17:15:22.983Z,10.23
2017-10-27T17:17:57.427Z,10.24
2017-10-27T17:20:34.392Z,10.24
2017-10-27T17:23:09.199Z,10.26
2017-10-27T17:25:43.681Z,10.26
2017-10-27T17:28:18.316Z,10.27
2017-10-27T17:30:53.683Z,10.27
2017-10-27T17:33:28.353Z,10.23
2017-10-27T17:36:03.197Z,10.23
2017-10-27T17:38:37.645Z,10.21
2017-10-27T17:41:11.707Z,10.22
2017-10-27T17:43:45.847Z,10.19
2017-10-27T17:46:19.996Z,10.24
2017-10-27T17:48:54.518Z,10.26
2017-10-27T17:51:28.994Z,10.29
2017-10-27T17:54:04.320Z,10.28
2017-10-27T17:56:38.730Z,10.31
2017-10-27T17:59:13.132Z,10.34
2017-10-27T18:01:47.673Z,10.33
2017-10-27T18:04:22.158Z,10.29
2017-10-27T18:06:59.230Z,10.33
2017-10-27T18:09:33.706Z,10.28
2017-10-27T18:12:08.131Z,10.25
2017-10-27T18:14:42.763Z,10.21
2017-10-27T18:17:16.800Z,10.19
2017-10-27T18:19:52.249Z,10.17
2017-10-27T18:22:26.431Z,10.21
2017-10-27T18:25:01.034Z,10.17
2017-10-27T18:31:12.422Z,10.22
2017-10-27T18:33:47.071Z,10.28
2017-10-27T18:36:21.218Z,10.26
2017-10-27T18:38:55.830Z,10.25
2017-10-27T18:41:31.052Z,10.31
2017-10-27T18:44:05.920Z,10.30
2017-10-27T18:46:40.315Z,10.30
2017-10-27T18:49:15.182Z,10.35
2017-10-27T18:51:49.575Z,10.29
2017-10-27T18:54:24.135Z,10.32
2017-10-27T18:56:58.574Z,10.36
2017-10-27T18:59:33.269Z,10.43
2017-10-27T19:02:07.658Z,10.34
2017-10-27T19:04:42.278Z,10.39
2017-10-27T19:07:17.572Z,10.34
2017-10-27T19:09:54.307Z,10.41
2017-10-27T19:12:28.923Z,10.47
2017-10-27T19:15:13.878Z,10.46
2017-10-27T19:17:48.483Z,10.42
2017-10-27T19:20:22.888Z,10.33
2017-10-27T19:22:57.345Z,10.20
2017-10-27T19:25:31.908Z,10.36
2017-10-27T19:28:07.080Z,10.43
2017-10-27T19:30:41.193Z,10.47
2017-10-27T19:33:26.858Z,10.44
2017-10-27T19:36:01.323Z,10.33
2017-10-27T19:38:35.929Z,10.33
2017-10-27T19:41:11.352Z,10.33
2017-10-27T19:43:45.983Z,10.35
2017-10-27T19:46:20.551Z,10.38
2017-10-27T19:48:55.083Z,10.33
2017-10-27T19:51:29.479Z,10.43
2017-10-27T19:54:05.499Z,10.40
2017-10-27T19:56:40.087Z,10.46
2017-10-27T19:59:16.095Z,10.43
2017-10-27T20:01:50.785Z,10.43
2017-10-27T20:04:25.366Z,10.41
2017-10-27T20:06:59.736Z,10.40
2017-10-27T20:09:34.302Z,10.44
2017-10-27T20:12:08.749Z,10.48
2017-10-27T20:14:43.953Z,10.47
2017-10-27T20:17:19.381Z,10.37
2017-10-27T20:19:54.738Z,10.34
2017-10-27T20:22:29.550Z,10.35
2017-10-27T20:25:13.968Z,10.32
2017-10-27T20:27:48.475Z,10.44
2017-10-27T20:30:23.567Z,10.44
2017-10-27T20:32:58.294Z,10.45
2017-10-27T20:35:32.847Z,10.50
2017-10-27T20:38:07.415Z,10.49
2017-10-27T20:40:41.906Z,10.44
2017-10-27T20:43:16.378Z,10.45
2017-10-27T20:45:50.787Z,10.46
2017-10-27T20:48:25.383Z,10.46
2017-10-27T20:50:59.871Z,10.44
2017-10-27T20:53:35.142Z,10.42
2017-10-27T20:56:09.737Z,10.37
2017-10-27T20:58:44.260Z,10.34
2017-10-27T21:01:19.727Z,10.37
2017-10-27T21:03:54.771Z,10.35
2017-10-27T21:06:30.855Z,10.35
2017-10-27T21:09:05.668Z,10.34
2017-10-27T21:11:40.299Z,10.34
2017-10-27T21:14:14.816Z,10.36
2017-10-27T21:16:49.694Z,10.32
2017-10-27T21:19:24.227Z,10.34
2017-10-27T21:21:58.665Z,10.32
2017-10-27T21:24:33.102Z,10.34
2017-10-27T21:27:07.518Z,10.39
2017-10-27T21:29:41.975Z,10.40
2017-10-27T21:32:16.707Z,10.39
2017-10-27T21:34:51.290Z,10.39
2017-10-27T21:37:25.732Z,10.34
2017-10-27T21:40:00.265Z,10.36
2017-10-27T21:42:34.660Z,10.33
2017-10-27T21:45:16.419Z,9.66
2017-10-27T21:47:51.435Z,10.34
2017-10-27T21:50:25.869Z,10.34
2017-10-27T21:53:00.623Z,10.10
2017-10-27T21:55:35.128Z,10.36
2017-10-27T21:58:09.875Z,10.32
2017-10-27T22:00:44.357Z,10.27
2017-10-27T22:03:19.039Z,10.32
2017-10-27T22:05:53.695Z,10.35
2017-10-27T22:08:28.223Z,10.38
2017-10-27T22:11:02.710Z,10.38
2017-10-27T22:13:37.147Z,10.40
2017-10-27T22:16:11.922Z,10.41
2017-10-27T22:18:47.114Z,10.43
2017-10-27T22:21:21.910Z,10.42
2017-10-27T22:23:56.439Z,10.42
2017-10-27T22:26:30.972Z,10.40
2017-10-27T22:29:05.577Z,10.38
2017-10-27T22:31:40.553Z,10.36
2017-10-27T22:34:14.974Z,10.35
2017-10-27T22:36:49.635Z,10.39
2017-10-27T22:39:24.050Z,10.36
2017-10-27T22:41:58.459Z,10.20
2017-10-27T22:44:33.097Z,10.33
2017-10-27T22:47:07.742Z,10.32
2017-10-27T22:49:42.459Z,10.28
2017-10-27T22:52:16.918Z,10.23
2017-10-27T22:54:51.535Z,10.23
2017-10-27T22:57:26.020Z,10.21
2017-10-27T23:00:00.522Z,10.21
2017-10-27T23:02:34.966Z,10.20
2017-10-27T23:05:15.891Z,10.25
2017-10-27T23:07:55.876Z,10.17
2017-10-27T23:10:30.456Z,10.19
2017-10-27T23:13:04.991Z,10.22
2017-10-27T23:15:39.560Z,10.24
2017-10-27T23:18:13.998Z,10.21
2017-10-27T23:20:48.550Z,10.16
2017-10-27T23:23:23.138Z,9.86
2017-10-27T23:25:57.648Z,9.69
2017-10-27T23:28:32.133Z,9.66
2017-10-27T23:31:06.951Z,9.66
2017-10-27T23:33:41.345Z,9.66
2017-10-27T23:36:16.843Z,9.61
2017-10-27T23:38:51.348Z,9.22
2017-10-27T23:41:25.923Z,9.52
2017-10-27T23:44:00.465Z,9.58
2017-10-27T23:46:35.064Z,9.57
2017-10-27T23:49:09.620Z,9.65
2017-10-27T23:51:44.202Z,9.66
2017-10-27T23:54:18.729Z,9.63
2017-10-27T23:56:53.242Z,9.61
2017-10-27T23:59:27.806Z,9.46
